TimeMST,TemperatureF,Dew PointF,Humidity,Sea Level PressureIn,VisibilityMPH,Wind Direction,Wind SpeedMPH,Gust SpeedMPH,PrecipitationIn,Events,Conditions,WindDirDegrees,DateUTC
12:53 AM,12.0,5.0,73,30.30,10.0,Calm,Calm,-,N/A,,Clear,0,2013-01-23 07:53:00
1:53 AM,12.9,6.1,74,30.27,9.0,Calm,Calm,-,N/A,,Clear,0,2013-01-23 08:53:00
2:53 AM,10.9,6.1,81,30.30,10.0,Calm,Calm,-,N/A,,Clear,0,2013-01-23 09:53:00
3:53 AM,10.0,5.0,80,30.29,10.0,Calm,Calm,-,N/A,,Clear,0,2013-01-23 10:53:00
4:53 AM,10.0,5.0,80,30.31,10.0,Calm,Calm,-,N/A,,Clear,0,2013-01-23 11:53:00
5:53 AM,10.9,6.1,81,30.32,10.0,Calm,Calm,-,N/A,,Clear,0,2013-01-23 12:53:00
6:53 AM,12.0,6.1,77,30.34,10.0,Calm,Calm,-,N/A,,Clear,0,2013-01-23 13:53:00
7:53 AM,12.0,7.0,80,30.34,8.0,Calm,Calm,-,N/A,,Clear,0,2013-01-23 14:53:00
8:53 AM,12.9,8.1,81,30.33,10.0,SSE,3.5,-,N/A,,Clear,150,2013-01-23 15:53:00
9:53 AM,17.1,10.0,74,30.32,10.0,South,5.8,-,N/A,,Clear,180,2013-01-23 16:53:00
10:53 AM,19.0,12.0,74,30.31,10.0,Calm,Calm,-,N/A,,Clear,0,2013-01-23 17:53:00
11:53 AM,24.1,12.9,62,30.26,10.0,Calm,Calm,-,N/A,,Clear,0,2013-01-23 18:53:00
12:53 PM,25.0,14.0,63,30.23,10.0,Calm,Calm,-,N/A,,Clear,0,2013-01-23 19:53:00
1:21 PM,26.6,12.2,55,30.03,1.2,Calm,Calm,-,N/A,,Haze,0,2013-01-23 20:21:00
1:39 PM,26.6,15.8,64,30.01,10.0,Calm,Calm,-,N/A,,Clear,0,2013-01-23 20:39:00
1:53 PM,27.0,15.1,61,30.18,10.0,Calm,Calm,-,N/A,,Clear,0,2013-01-23 20:53:00
2:53 PM,30.0,17.1,59,30.16,10.0,South,4.6,-,N/A,,Clear,180,2013-01-23 21:53:00
3:53 PM,30.9,17.1,57,30.16,10.0,Calm,Calm,-,N/A,,Clear,0,2013-01-23 22:53:00
4:53 PM,28.9,19.0,67,30.15,10.0,South,4.6,-,N/A,,Scattered Clouds,190,2013-01-23 23:53:00
5:53 PM,30.0,19.0,64,30.15,10.0,Calm,Calm,-,N/A,,Overcast,0,2013-01-24 00:53:00
6:53 PM,30.9,19.0,61,30.15,10.0,NNE,9.2,-,N/A,,Overcast,30,2013-01-24 01:53:00
7:53 PM,30.0,19.9,66,30.15,10.0,South,5.8,-,N/A,,Mostly Cloudy,170,2013-01-24 02:53:00
8:53 PM,30.0,19.0,64,30.11,10.0,Calm,Calm,-,N/A,,Scattered Clouds,0,2013-01-24 03:53:00
9:53 PM,28.0,19.9,72,30.10,10.0,Calm,Calm,-,N/A,,Clear,0,2013-01-24 04:53:00
10:53 PM,30.0,19.0,64,30.07,9.0,ESE,4.6,-,N/A,,Overcast,120,2013-01-24 05:53:00
11:53 PM,28.0,19.0,69,30.08,10.0,NW,6.9,-,N/A,,Overcast,310,2013-01-24 06:53:00